Time;durP1;ratioP1;P1;durP2;ratioP2;P2;SDS_P1;SDS_P2;PMS_P1;PMS_P2;Temp;Humidity;BMP_temperature;BMP_pressure;BME280_temperature;BME280_humidity;BME280_pressure;Samples;Min_cycle;Max_cycle;Signal;HPM_P1;HPM_P2
2023/04/04 00:01:24;;;;;;;1.85;1.17;;;;;;;3.94;37.36;92220.94;5111930;28;20627;-76
2023/04/04 00:03:50;;;;;;;1.85;1.08;;;;;;;3.88;37.54;92221.16;5111295;28;20031;-76
2023/04/04 00:06:19;;;;;;;2.05;1.08;;;;;;;3.79;38.32;92218.25;5113021;28;20343;-76
2023/04/04 00:08:46;;;;;;;2.63;1.40;;;;;;;3.77;38.34;92214.38;5113011;28;20477;-76
2023/04/04 00:11:12;;;;;;;2.13;1.20;;;;;;;3.72;38.58;92215.13;5090296;28;20027;-76
2023/04/04 00:13:38;;;;;;;3.15;1.20;;;;;;;3.73;38.68;92219.25;5093458;28;20020;-76
2023/04/04 00:16:05;;;;;;;1.35;1.10;;;;;;;3.67;39.15;92209.88;5094220;28;20108;-76
2023/04/04 00:18:31;;;;;;;3.50;1.30;;;;;;;3.58;39.39;92214.78;5113135;28;20696;-76
2023/04/04 00:20:57;;;;;;;1.75;1.13;;;;;;;3.61;40.12;92209.09;5088728;28;20378;-76
2023/04/04 00:23:23;;;;;;;2.03;1.15;;;;;;;3.48;40.59;92206.94;5089830;28;20051;-76
2023/04/04 00:25:51;;;;;;;2.00;1.20;;;;;;;3.41;40.45;92211.53;5091405;28;20040;-76
2023/04/04 00:28:18;;;;;;;2.15;1.17;;;;;;;3.41;40.06;92206.38;5091806;28;20039;-76
2023/04/04 00:30:44;;;;;;;2.15;1.30;;;;;;;3.40;40.18;92204.78;5090935;28;20044;-76
2023/04/04 00:33:09;;;;;;;2.33;1.30;;;;;;;3.34;40.13;92209.94;5090842;28;20513;-76
2023/04/04 00:35:35;;;;;;;3.53;1.40;;;;;;;3.29;39.94;92209.13;5089225;28;20077;-77
2023/04/04 00:38:01;;;;;;;2.17;1.38;;;;;;;3.27;39.16;92200.84;5089830;28;20404;-76
2023/04/04 00:40:27;;;;;;;1.92;1.27;;;;;;;3.25;39.23;92202.91;5091989;28;20063;-76
2023/04/04 00:42:53;;;;;;;1.23;0.90;;;;;;;3.26;38.96;92205.22;5081721;28;20108;-76
2023/04/04 00:45:18;;;;;;;2.45;1.45;;;;;;;3.30;38.98;92206.28;5090485;28;20090;-76
2023/04/04 00:47:45;;;;;;;1.65;1.20;;;;;;;3.28;39.54;92208.34;5090565;28;20047;-76
2023/04/04 00:50:11;;;;;;;2.42;1.27;;;;;;;3.24;38.72;92209.09;5090337;28;20497;-76
2023/04/04 00:52:36;;;;;;;1.80;1.13;;;;;;;3.17;39.07;92205.94;5088748;28;20031;-76
2023/04/04 00:55:03;;;;;;;2.90;1.52;;;;;;;3.14;39.71;92202.03;5091244;28;20400;-76
2023/04/04 00:57:29;;;;;;;3.35;1.40;;;;;;;3.26;41.75;92202.63;5072852;28;20033;-76
2023/04/04 00:59:56;;;;;;;1.80;1.20;;;;;;;3.18;43.10;92207.50;5091566;28;20080;-76
2023/04/04 01:02:23;;;;;;;2.30;1.30;;;;;;;3.06;42.23;92197.31;5091416;28;20096;-76
2023/04/04 01:04:50;;;;;;;1.58;1.17;;;;;;;2.97;43.30;92191.81;5087439;28;20115;-76
2023/04/04 01:07:18;;;;;;;1.90;1.20;;;;;;;2.90;44.23;92191.22;5086888;28;20047;-76
2023/04/04 01:09:44;;;;;;;2.40;1.30;;;;;;;2.87;45.68;92186.56;5088554;28;20061;-76
2023/04/04 01:12:10;;;;;;;2.42;1.30;;;;;;;2.82;47.57;92186.53;5084965;28;20371;-76
2023/04/04 01:14:35;;;;;;;1.85;1.25;;;;;;;2.78;47.05;92183.63;5069690;28;20126;-76
2023/04/04 01:17:02;;;;;;;2.60;1.50;;;;;;;2.74;49.25;92186.97;5090186;28;20661;-76
2023/04/04 01:20:13;;;;;;;3.38;1.70;;;;;;;2.70;50.78;92187.47;5089884;28;20043;-76
2023/04/04 01:22:48;;;;;;;2.58;1.48;;;;;;;2.61;52.43;92183.75;5055489;28;20570;-76
2023/04/04 01:25:37;;;;;;;3.22;1.50;;;;;;;2.60;50.26;92184.78;5086933;28;20397;-76
2023/04/04 01:28:07;;;;;;;2.25;1.40;;;;;;;2.61;48.71;92185.53;5086542;28;20476;-76
2023/04/04 01:30:35;;;;;;;2.40;1.20;;;;;;;2.57;48.81;92184.47;5088342;28;20047;-76
2023/04/04 01:33:26;;;;;;;2.83;1.40;;;;;;;2.49;47.76;92181.31;5090387;28;20121;-76
2023/04/04 01:36:04;;;;;;;1.90;1.30;;;;;;;2.43;47.59;92177.13;5088873;28;20043;-75
2023/04/04 01:38:34;;;;;;;2.78;1.45;;;;;;;2.38;48.01;92169.31;5090619;28;20067;-76
2023/04/04 01:41:07;;;;;;;4.45;1.45;;;;;;;2.42;48.44;92167.03;5090826;28;20059;-75
2023/04/04 01:43:34;;;;;;;3.20;1.10;;;;;;;2.41;48.19;92166.25;5089723;28;20043;-76
2023/04/04 01:46:01;;;;;;;4.38;1.90;;;;;;;2.39;52.32;92170.09;5089033;28;20448;-76
2023/04/04 01:48:27;;;;;;;3.88;1.95;;;;;;;2.42;55.31;92167.81;5089379;28;20044;-76
2023/04/04 01:50:55;;;;;;;4.30;1.85;;;;;;;2.41;56.80;92162.88;5072872;28;20126;-75
2023/04/04 01:53:23;;;;;;;3.33;1.88;;;;;;;2.43;57.11;92166.00;5089126;28;20552;-76
2023/04/04 01:55:49;;;;;;;3.70;1.90;;;;;;;2.39;58.01;92170.09;5089320;28;20070;-76
2023/04/04 01:58:15;;;;;;;3.70;1.80;;;;;;;2.37;58.63;92172.16;5087181;28;20334;-75
2023/04/04 02:00:41;;;;;;;4.18;2.08;;;;;;;2.34;59.50;92170.03;5088535;28;20549;-75
2023/04/04 02:03:07;;;;;;;4.15;1.83;;;;;;;2.35;59.66;92169.03;5085764;28;20047;-75
2023/04/04 02:05:32;;;;;;;5.03;2.10;;;;;;;2.36;60.32;92166.19;5055577;28;20048;-75
2023/04/04 02:07:58;;;;;;;9.13;2.10;;;;;;;2.35;63.10;92166.44;5089180;28;20409;-75
2023/04/04 02:10:34;;;;;;;3.33;1.92;;;;;;;2.35;63.84;92169.03;5072643;28;20043;-76
2023/04/04 02:12:59;;;;;;;3.55;1.70;;;;;;;2.38;64.35;92171.88;5088368;28;20040;-76
2023/04/04 02:15:25;;;;;;;5.88;1.90;;;;;;;2.38;65.64;92163.38;5090228;28;20405;-76
2023/04/04 02:17:51;;;;;;;5.10;2.05;;;;;;;2.37;64.50;92164.41;5089094;28;20044;-76
2023/04/04 02:20:19;;;;;;;5.68;2.20;;;;;;;2.37;65.13;92159.22;5088596;28;20036;-76
2023/04/04 02:22:52;;;;;;;4.70;1.98;;;;;;;2.32;65.07;92159.16;5085717;28;20044;-76
2023/04/04 02:25:19;;;;;;;5.80;2.00;;;;;;;2.42;67.66;92161.84;5067193;28;20064;-76
2023/04/04 02:27:45;;;;;;;4.90;2.20;;;;;;;2.41;67.74;92157.69;5089002;28;20043;-76
2023/04/04 02:30:11;;;;;;;5.22;2.30;;;;;;;2.40;69.28;92158.75;5071147;28;20032;-76
2023/04/04 02:32:37;;;;;;;6.68;2.00;;;;;;;2.43;67.89;92155.66;5088690;28;20040;-76
2023/04/04 02:35:05;;;;;;;3.88;2.10;;;;;;;2.42;67.97;92154.88;5088969;28;20391;-76
2023/04/04 02:37:31;;;;;;;7.80;2.17;;;;;;;2.40;69.81;92156.16;5071618;28;20101;-76
2023/04/04 02:39:58;;;;;;;7.63;2.33;;;;;;;2.39;70.21;92157.19;5072165;28;20036;-76
2023/04/04 02:42:24;;;;;;;4.82;2.22;;;;;;;2.39;70.80;92149.44;5087395;28;20513;-76
2023/04/04 02:44:50;;;;;;;5.38;2.05;;;;;;;2.50;72.70;92151.88;5088133;28;20044;-76
2023/04/04 02:47:16;;;;;;;4.10;2.13;;;;;;;2.45;72.45;92153.63;5088712;28;20040;-76
2023/04/04 02:49:43;;;;;;;4.43;2.05;;;;;;;2.43;71.82;92155.66;5087449;28;20046;-76
2023/04/04 02:52:10;;;;;;;7.38;2.00;;;;;;;2.48;73.35;92155.72;5088983;28;20032;-76
2023/04/04 02:54:39;;;;;;;4.38;2.13;;;;;;;2.44;73.66;92152.06;5087970;28;20051;-76
2023/04/04 02:57:07;;;;;;;3.92;2.00;;;;;;;2.50;72.41;92151.09;5088382;28;20127;-75
2023/04/04 02:59:33;;;;;;;6.20;2.22;;;;;;;2.43;72.65;92150.50;5071668;28;20044;-76
2023/04/04 03:01:59;;;;;;;4.20;2.00;;;;;;;2.37;72.72;92148.91;5086797;28;20084;-75
2023/04/04 03:04:26;;;;;;;7.93;2.20;;;;;;;2.34;72.41;92151.94;5088389;28;20097;-76
2023/04/04 03:06:51;;;;;;;3.15;1.80;;;;;;;2.32;73.30;92151.41;5088849;28;20418;-76
2023/04/04 03:09:17;;;;;;;8.18;2.40;;;;;;;2.28;72.67;92146.75;5088727;28;20032;-76
2023/04/04 03:11:43;;;;;;;3.40;1.92;;;;;;;2.30;72.76;92151.69;5080927;28;20062;-76
2023/04/04 03:14:08;;;;;;;4.35;1.90;;;;;;;2.25;73.23;92144.66;5088476;28;20406;-76
2023/04/04 03:16:37;;;;;;;5.90;2.67;;;;;;;2.18;74.71;92141.47;5088249;28;20036;-76
2023/04/04 03:19:03;;;;;;;3.53;2.08;;;;;;;2.18;74.15;92138.88;5088665;28;20028;-76
2023/04/04 03:21:28;;;;;;;5.38;1.88;;;;;;;2.18;73.48;92138.09;5087645;28;20035;-76
2023/04/04 03:23:56;;;;;;;4.10;2.08;;;;;;;2.16;75.07;92143.53;5085124;28;20048;-76
2023/04/04 03:26:24;;;;;;;4.78;1.75;;;;;;;2.14;75.29;92137.84;5079954;28;20047;-76
2023/04/04 03:28:50;;;;;;;4.05;2.10;;;;;;;2.15;75.33;92138.59;5071214;28;20324;-76
2023/04/04 03:31:19;;;;;;;3.65;1.88;;;;;;;2.10;75.69;92130.81;5090730;28;20040;-76
2023/04/04 03:33:44;;;;;;;5.13;2.20;;;;;;;2.19;76.16;92139.69;5072962;28;20536;-76
2023/04/04 03:36:11;;;;;;;6.20;2.55;;;;;;;2.18;76.46;92138.88;5075160;28;20141;-76
2023/04/04 03:38:38;;;;;;;4.30;2.00;;;;;;;2.21;76.94;92137.63;5091741;28;20051;-76
2023/04/04 03:41:05;;;;;;;4.40;2.10;;;;;;;2.27;75.87;92144.41;5092409;28;20108;-76
2023/04/04 03:43:31;;;;;;;6.20;1.95;;;;;;;2.28;76.40;92143.38;5087520;28;20180;-76
2023/04/04 03:46:01;;;;;;;3.72;1.98;;;;;;;2.37;75.23;92151.50;5091453;28;20115;-75
2023/04/04 03:48:28;;;;;;;4.53;1.92;;;;;;;2.38;75.06;92150.44;5092127;28;20032;-74
2023/04/04 03:50:58;;;;;;;4.82;2.00;;;;;;;2.60;74.24;92145.22;5092937;28;20043;-74
2023/04/04 03:53:25;;;;;;;3.33;1.70;;;;;;;2.61;73.91;92149.38;5090698;28;20060;-76
2023/04/04 03:55:51;;;;;;;5.25;2.15;;;;;;;2.67;73.53;92151.75;5073275;28;20032;-76
2023/04/04 03:58:17;;;;;;;3.35;1.80;;;;;;;2.60;74.97;92156.34;5090572;28;20032;-76
2023/04/04 04:00:42;;;;;;;3.60;1.88;;;;;;;2.50;75.02;92156.25;5090800;28;20036;-76
2023/04/04 04:03:08;;;;;;;4.22;1.90;;;;;;;2.46;74.77;92157.78;5091400;28;20032;-76
2023/04/04 04:05:34;;;;;;;5.13;2.00;;;;;;;2.43;74.89;92150.50;5089437;28;20040;-76
2023/04/04 04:07:59;;;;;;;6.88;2.17;;;;;;;2.41;74.22;92153.34;5090529;28;20075;-76
2023/04/04 04:10:25;;;;;;;2.92;1.85;;;;;;;2.42;74.94;92154.13;5091337;28;20102;-76
2023/04/04 04:12:51;;;;;;;5.10;2.03;;;;;;;2.39;74.96;92154.59;5091277;28;20081;-76
2023/04/04 04:15:17;;;;;;;3.80;1.80;;;;;;;2.43;75.13;92166.00;5090184;28;20082;-76
2023/04/04 04:17:44;;;;;;;5.45;2.10;;;;;;;2.42;74.96;92169.59;5089607;28;20493;-76
2023/04/04 04:20:11;;;;;;;3.80;1.88;;;;;;;2.43;75.42;92166.00;5074467;28;20036;-76
2023/04/04 04:22:47;;;;;;;4.82;2.17;;;;;;;2.58;74.82;92162.78;5089006;28;20054;-76
2023/04/04 04:25:14;;;;;;;4.35;1.80;;;;;;;2.47;75.25;92164.47;5090103;28;20071;-76
2023/04/04 04:27:44;;;;;;;5.50;1.92;;;;;;;2.49;75.04;92165.78;5090783;28;20359;-76
2023/04/04 04:30:09;;;;;;;8.48;2.00;;;;;;;2.70;73.37;92164.19;5086831;28;20554;-75
2023/04/04 04:32:39;;;;;;;3.45;1.67;;;;;;;2.51;73.92;92173.31;5089863;28;20074;-76
2023/04/04 04:35:07;;;;;;;3.67;1.70;;;;;;;2.50;74.04;92172.53;5089604;28;20060;-76
2023/04/04 04:37:35;;;;;;;3.63;1.90;;;;;;;2.38;74.39;92174.47;5090693;28;20072;-76
2023/04/04 04:40:02;;;;;;;4.43;1.95;;;;;;;2.29;75.12;92175.94;5086651;28;20042;-75
2023/04/04 04:42:45;;;;;;;5.78;1.92;;;;;;;2.29;74.90;92184.44;5086125;28;20127;-76
2023/04/04 04:45:11;;;;;;;4.28;1.80;;;;;;;2.27;76.15;92183.94;5087637;28;20036;-76
2023/04/04 04:47:41;;;;;;;6.63;2.25;;;;;;;2.35;75.03;92185.31;5089762;28;20126;-77
2023/04/04 04:50:08;;;;;;;6.65;2.25;;;;;;;2.28;74.23;92195.81;5084786;28;20040;-78
2023/04/04 04:52:38;;;;;;;4.93;1.77;;;;;;;2.20;73.56;92191.06;5086924;28;20032;-78
2023/04/04 04:55:04;;;;;;;5.47;1.80;;;;;;;2.16;73.89;92191.78;5089379;28;20058;-79
2023/04/04 04:57:33;;;;;;;5.57;2.00;;;;;;;2.15;73.46;92198.78;5087344;28;20032;-79
2023/04/04 05:00:05;;;;;;;4.32;2.03;;;;;;;2.20;73.55;92198.81;5087332;28;20040;-78
2023/04/04 05:02:31;;;;;;;7.68;2.03;;;;;;;2.22;72.67;92196.00;5104587;28;20044;-81
2023/04/04 05:04:57;;;;;;;3.83;1.90;;;;;;;2.08;71.85;92200.75;5088447;28;20036;-77
2023/04/04 05:07:24;;;;;;;7.80;2.67;;;;;;;2.00;71.39;92199.38;5067882;28;20051;-78
2023/04/04 05:09:51;;;;;;;5.97;2.17;;;;;;;2.09;70.94;92202.31;5101655;28;20074;-77
2023/04/04 05:12:20;;;;;;;6.05;2.15;;;;;;;2.11;70.74;92205.44;5088650;28;20079;-78
2023/04/04 05:14:48;;;;;;;6.80;2.08;;;;;;;2.11;70.22;92208.00;5088289;28;20032;-78
2023/04/04 05:17:14;;;;;;;7.38;2.15;;;;;;;2.42;67.58;92210.94;5088986;28;20039;-78
2023/04/04 05:19:41;;;;;;;4.55;1.80;;;;;;;2.51;66.07;92209.50;5090638;28;20032;-78
2023/04/04 05:22:07;;;;;;;6.07;2.10;;;;;;;2.47;65.13;92209.19;5090186;28;20040;-78
2023/04/04 05:24:42;;;;;;;7.22;2.45;;;;;;;2.49;64.93;92212.31;5090740;28;20142;-78
2023/04/04 05:27:10;;;;;;;5.07;1.67;;;;;;;2.55;65.39;92217.53;5075897;28;20046;-77
2023/04/04 05:29:41;;;;;;;8.18;2.33;;;;;;;2.53;65.55;92212.63;5090492;28;20056;-78
2023/04/04 05:32:07;;;;;;;7.15;2.22;;;;;;;2.62;65.00;92218.91;5092041;28;20540;-78
2023/04/04 05:34:34;;;;;;;4.32;1.88;;;;;;;2.68;65.27;92220.53;5088026;28;20074;-77
2023/04/04 05:37:05;;;;;;;5.00;2.00;;;;;;;2.75;64.33;92222.13;5092486;28;20704;-78
2023/04/04 05:39:32;;;;;;;3.72;2.00;;;;;;;2.82;64.82;92220.91;5091751;28;20032;-78
2023/04/04 05:42:02;;;;;;;5.47;2.28;;;;;;;2.98;64.43;92223.63;5090503;28;20054;-78
2023/04/04 05:44:32;;;;;;;5.82;2.03;;;;;;;3.12;63.72;92224.78;5088663;28;20036;-78
2023/04/04 05:46:58;;;;;;;6.03;2.00;;;;;;;3.18;63.56;92228.19;5073152;28;20034;-77
2023/04/04 05:49:25;;;;;;;5.30;2.22;;;;;;;3.24;63.68;92219.44;5090534;28;20493;-78
2023/04/04 05:51:55;;;;;;;9.05;2.17;;;;;;;3.34;62.40;92222.09;5071150;28;20040;-78
2023/04/04 05:54:22;;;;;;;3.85;1.90;;;;;;;3.47;61.08;92224.28;5072771;28;20566;-77
2023/04/04 05:56:48;;;;;;;8.52;2.38;;;;;;;3.53;60.75;92225.88;5110037;28;20023;-77
2023/04/04 05:59:23;;;;;;;5.28;2.05;;;;;;;3.46;61.75;92230.47;5088721;28;20037;-78
2023/04/04 06:02:02;;;;;;;4.50;1.90;;;;;;;3.48;61.28;92227.63;5089396;28;20112;-78
2023/04/04 06:04:28;;;;;;;3.88;1.85;;;;;;;3.60;60.14;92225.63;5071724;28;20077;-75
2023/04/04 06:06:56;;;;;;;4.25;2.00;;;;;;;3.64;61.72;92231.09;5090343;28;20131;-75
2023/04/04 06:09:22;;;;;;;5.38;1.88;;;;;;;3.55;62.23;92228.19;5073867;28;20071;-75
2023/04/04 06:11:47;;;;;;;5.20;2.10;;;;;;;3.41;63.55;92233.03;5091083;28;20118;-75
2023/04/04 06:14:13;;;;;;;5.15;2.10;;;;;;;3.36;63.84;92233.00;5092272;28;20046;-77
2023/04/04 06:16:39;;;;;;;4.78;1.63;;;;;;;3.45;63.71;92228.16;5090605;28;20033;-77
2023/04/04 06:19:05;;;;;;;5.45;2.10;;;;;;;3.94;61.10;92236.47;5089798;28;20043;-77
2023/04/04 06:21:30;;;;;;;7.93;2.03;;;;;;;4.37;60.39;92226.81;5107367;28;20035;-78
2023/04/04 06:23:56;;;;;;;8.90;2.45;;;;;;;5.49;57.13;92222.81;5102083;28;20035;-77
2023/04/04 06:26:22;;;;;;;3.25;1.77;;;;;;;5.84;54.61;92234.22;5106583;28;20032;-77
2023/04/04 06:28:49;;;;;;;3.95;1.70;;;;;;;6.39;52.62;92224.72;5109334;28;20039;-78
2023/04/04 06:31:18;;;;;;;3.38;1.67;;;;;;;6.28;52.33;92218.00;5105103;28;20400;-77
2023/04/04 06:33:45;;;;;;;8.73;2.30;;;;;;;6.46;53.29;92225.22;5099810;28;20098;-77
2023/04/04 06:36:11;;;;;;;4.07;1.90;;;;;;;6.97;51.07;92223.41;5116105;28;20401;-77
2023/04/04 06:38:37;;;;;;;6.55;1.80;;;;;;;7.57;49.80;92228.47;5105629;28;20035;-77
2023/04/04 06:41:11;;;;;;;6.72;2.20;;;;;;;7.96;47.92;92224.97;5106317;28;20036;-77
2023/04/04 06:43:37;;;;;;;7.45;1.92;;;;;;;7.67;48.25;92218.72;5125552;28;20035;-77
2023/04/04 06:46:03;;;;;;;10.90;2.35;;;;;;;8.11;47.74;92217.78;5106695;28;20081;-77
2023/04/04 06:48:29;;;;;;;6.55;2.00;;;;;;;7.96;47.03;92223.16;5108303;28;20515;-77
2023/04/04 06:50:55;;;;;;;7.55;2.60;;;;;;;6.95;48.74;92225.50;5110306;28;20480;-77
2023/04/04 06:53:22;;;;;;;8.38;2.33;;;;;;;6.63;50.57;92226.72;5102326;28;20019;-77
2023/04/04 06:55:48;;;;;;;7.93;2.25;;;;;;;7.70;48.58;92218.19;5107820;28;20027;-76
2023/04/04 06:58:14;;;;;;;4.28;2.03;;;;;;;8.05;47.17;92231.91;5093165;28;20082;-75
2023/04/04 07:00:39;;;;;;;5.40;2.30;;;;;;;8.62;45.89;92224.25;5124275;28;20066;-77
2023/04/04 07:03:05;;;;;;;4.18;1.77;;;;;;;9.24;44.65;92221.63;5124333;28;20042;-76
2023/04/04 07:05:31;;;;;;;4.55;2.10;;;;;;;8.80;44.02;92222.75;5122701;27;20020;-76
2023/04/04 07:07:56;;;;;;;4.50;1.65;;;;;;;7.85;47.04;92222.44;5125774;27;20042;-76
2023/04/04 07:10:23;;;;;;;6.85;2.30;;;;;;;6.72;49.62;92219.91;5124448;27;20118;-76
2023/04/04 07:12:50;;;;;;;15.10;2.80;;;;;;;7.01;49.85;92224.44;5097081;27;20030;-76
2023/04/04 07:15:16;;;;;;;4.18;1.98;;;;;;;6.66;50.66;92221.75;5124338;27;20022;-76
2023/04/04 07:17:42;;;;;;;13.77;2.30;;;;;;;6.22;52.86;92219.84;5123004;27;20546;-76
2023/04/04 07:20:08;;;;;;;9.20;2.58;;;;;;;5.77;53.67;92223.31;5125048;27;20027;-76
2023/04/04 07:22:41;;;;;;;6.43;2.47;;;;;;;5.25;54.48;92222.56;5124653;27;20052;-75
2023/04/04 07:25:08;;;;;;;3.70;1.85;;;;;;;5.26;55.08;92224.13;5124248;27;20522;-76
2023/04/04 07:27:34;;;;;;;7.43;2.15;;;;;;;5.30;56.06;92216.59;5123303;27;20508;-75
2023/04/04 07:30:00;;;;;;;6.28;2.40;;;;;;;5.27;56.60;92225.69;5105814;27;20032;-75
2023/04/04 07:32:25;;;;;;;8.10;2.25;;;;;;;5.40;57.28;92214.78;5123340;27;20077;-75
2023/04/04 07:34:51;;;;;;;4.43;1.88;;;;;;;5.48;54.96;92213.47;5104906;27;20047;-76
2023/04/04 07:37:17;;;;;;;5.78;1.80;;;;;;;5.47;55.76;92214.53;5124362;27;20271;-76
2023/04/04 07:39:43;;;;;;;5.00;2.20;;;;;;;5.67;56.13;92211.09;5099898;28;20587;-75
2023/04/04 07:42:09;;;;;;;6.78;2.20;;;;;;;5.67;55.52;92208.50;5123490;27;20031;-75
2023/04/04 07:44:34;;;;;;;8.70;2.13;;;;;;;5.25;56.68;92214.03;5122754;27;20034;-75
2023/04/04 07:47:00;;;;;;;7.57;2.67;;;;;;;5.29;55.36;92222.81;5123670;27;20039;-75
2023/04/04 07:49:26;;;;;;;15.18;2.60;;;;;;;5.41;56.60;92218.16;5123686;27;20492;-75
2023/04/04 07:51:51;;;;;;;9.55;2.22;;;;;;;5.73;55.80;92211.91;5115258;27;20028;-75
2023/04/04 07:54:17;;;;;;;5.25;2.30;;;;;;;5.82;55.81;92211.09;5124117;27;20154;-76
2023/04/04 07:56:42;;;;;;;7.78;2.63;;;;;;;5.52;56.03;92203.38;5105325;27;20171;-76
2023/04/04 07:59:08;;;;;;;9.20;2.60;;;;;;;5.89;56.20;92204.84;5129169;27;20388;-75
2023/04/04 08:01:33;;;;;;;4.07;2.00;;;;;;;6.51;55.20;92206.22;5106746;27;20564;-76
2023/04/04 08:04:00;;;;;;;6.28;1.92;;;;;;;6.45;53.32;92205.47;5088633;27;20031;-77
2023/04/04 08:06:26;;;;;;;3.42;1.90;;;;;;;6.57;53.04;92201.75;5126638;27;20110;-77
2023/04/04 08:08:51;;;;;;;8.38;2.58;;;;;;;6.63;54.24;92198.09;5127541;27;20037;-76
2023/04/04 08:11:17;;;;;;;10.43;2.58;;;;;;;6.94;53.35;92197.94;5121593;27;20036;-76
2023/04/04 08:13:43;;;;;;;6.32;1.98;;;;;;;7.31;51.54;92207.81;5126533;27;20042;-77
2023/04/04 08:16:08;;;;;;;22.00;2.78;;;;;;;7.30;50.33;92212.25;5124626;27;20400;-77
2023/04/04 08:18:34;;;;;;;9.52;2.85;;;;;;;7.22;49.69;92199.03;5108082;27;20043;-77
2023/04/04 08:20:59;;;;;;;8.70;2.85;;;;;;;6.95;51.13;92202.06;5126129;27;20090;-77
2023/04/04 08:23:26;;;;;;;5.15;2.38;;;;;;;6.86;51.93;92200.03;5126912;27;20051;-76
2023/04/04 08:25:52;;;;;;;5.75;2.72;;;;;;;6.41;52.81;92201.84;5123966;27;20039;-76
2023/04/04 08:28:18;;;;;;;6.35;2.30;;;;;;;6.42;54.01;92200.81;5123315;27;20404;-76
2023/04/04 08:30:43;;;;;;;4.57;2.28;;;;;;;6.43;54.07;92204.19;5127568;27;20063;-76
2023/04/04 08:33:09;;;;;;;10.43;2.53;;;;;;;6.31;53.52;92201.88;5129724;27;20035;-76
2023/04/04 08:35:35;;;;;;;8.00;2.40;;;;;;;6.05;54.50;92198.59;5093557;27;20163;-76
2023/04/04 08:38:04;;;;;;;3.92;2.00;;;;;;;6.30;53.77;92195.13;5106555;27;20039;-77
2023/04/04 08:40:31;;;;;;;10.68;2.65;;;;;;;6.44;53.99;92195.34;5126972;27;20050;-76
2023/04/04 08:42:58;;;;;;;4.70;2.00;;;;;;;6.84;53.56;92194.31;5126761;27;20031;-76
2023/04/04 08:45:25;;;;;;;6.35;2.50;;;;;;;6.55;53.13;92183.03;5130857;27;20026;-76
2023/04/04 08:47:55;;;;;;;9.70;3.25;;;;;;;6.49;52.32;92189.34;5121669;27;20400;-76
2023/04/04 08:50:21;;;;;;;5.53;2.50;;;;;;;6.34;52.46;92183.16;5128787;27;20110;-77
2023/04/04 08:52:48;;;;;;;16.52;3.15;;;;;;;6.64;54.56;92181.44;5113038;27;20099;-77
2023/04/04 08:55:14;;;;;;;5.50;1.92;;;;;;;6.81;53.45;92187.06;5110078;27;20492;-78
2023/04/04 08:57:40;;;;;;;9.82;2.17;;;;;;;6.96;52.30;92194.00;5131663;27;20045;-76
2023/04/04 09:00:07;;;;;;;4.30;2.25;;;;;;;6.54;52.70;92184.88;5128484;27;20031;-77
2023/04/04 09:02:48;;;;;;;6.25;2.63;;;;;;;6.64;53.25;92191.84;5111686;27;20039;-77
2023/04/04 09:05:15;;;;;;;7.30;2.23;;;;;;;6.65;53.96;92180.41;5122730;27;20038;-77
2023/04/04 09:07:42;;;;;;;11.73;2.92;;;;;;;6.76;52.19;92178.53;5123029;27;20113;-76
2023/04/04 09:10:10;;;;;;;10.32;2.65;;;;;;;6.73;52.86;92187.63;5125082;27;20044;-77
2023/04/04 09:12:41;;;;;;;7.13;2.78;;;;;;;7.46;52.65;92184.25;5118033;27;20473;-77
2023/04/04 09:15:08;;;;;;;10.95;3.30;;;;;;;7.29;52.22;92178.66;5122079;27;20106;-76
2023/04/04 09:17:34;;;;;;;13.15;2.65;;;;;;;7.06;52.41;92187.94;5126138;27;20524;-76
2023/04/04 09:20:03;;;;;;;6.50;3.08;;;;;;;7.46;52.32;92189.47;5121541;27;20090;-77
2023/04/04 09:22:29;;;;;;;6.90;2.33;;;;;;;7.26;51.40;92184.41;5090116;28;20441;-76
2023/04/04 09:24:55;;;;;;;8.77;2.95;;;;;;;7.16;52.81;92182.69;5085162;28;20089;-76
2023/04/04 09:27:21;;;;;;;7.20;2.20;;;;;;;7.21;50.66;92184.47;5090437;28;20044;-77
2023/04/04 09:29:47;;;;;;;8.05;3.55;;;;;;;7.04;53.08;92187.44;5087800;28;20027;-76
2023/04/04 09:32:14;;;;;;;6.95;2.75;;;;;;;7.32;53.52;92190.34;5087114;28;20059;-76
2023/04/04 09:34:42;;;;;;;7.80;3.20;;;;;;;7.88;52.32;92182.03;5079951;28;20072;-76
2023/04/04 09:37:09;;;;;;;8.63;2.47;;;;;;;8.21;50.95;92182.22;5090463;28;20027;-77
2023/04/04 09:39:38;;;;;;;3.55;1.98;;;;;;;8.47;48.45;92175.69;5091508;28;20036;-77
2023/04/04 09:42:05;;;;;;;5.93;2.47;;;;;;;8.11;48.78;92173.47;5088554;28;20105;-76
2023/04/04 09:44:32;;;;;;;6.65;2.60;;;;;;;7.38;49.74;92184.84;5082702;28;20032;-76
2023/04/04 09:47:23;;;;;;;6.20;2.33;;;;;;;6.82;52.18;92173.03;5081537;28;20028;-76
2023/04/04 09:49:52;;;;;;;7.22;2.35;;;;;;;7.14;52.43;92176.16;5089459;28;20419;-76
2023/04/04 09:52:19;;;;;;;5.82;2.78;;;;;;;7.78;51.50;92182.16;5088929;28;20413;-76
2023/04/04 09:54:58;;;;;;;7.25;2.78;;;;;;;8.07;50.77;92171.69;5089943;28;20035;-77
2023/04/04 09:57:27;;;;;;;9.38;3.70;;;;;;;7.25;51.33;92177.66;5105098;28;20043;-77
2023/04/04 09:59:57;;;;;;;5.25;2.47;;;;;;;6.54;53.12;92179.69;5088418;28;20064;-76
2023/04/04 10:02:23;;;;;;;6.90;2.40;;;;;;;6.23;53.32;92185.00;5088205;28;20556;-77
2023/04/04 10:04:49;;;;;;;7.15;2.78;;;;;;;6.15;53.97;92187.41;5086752;28;20055;-77
2023/04/04 10:07:15;;;;;;;7.60;3.03;;;;;;;5.85;54.72;92173.41;5089933;28;20514;-76
2023/04/04 10:09:41;;;;;;;7.22;2.90;;;;;;;5.82;54.44;92176.53;5085923;28;20040;-77
2023/04/04 10:12:08;;;;;;;6.50;3.08;;;;;;;5.59;54.94;92164.91;5091008;28;20501;-77
2023/04/04 10:14:35;;;;;;;7.65;3.00;;;;;;;5.45;55.03;92179.47;5080101;28;20095;-76
2023/04/04 10:17:09;;;;;;;5.32;2.50;;;;;;;5.96;55.65;92177.56;5083473;28;20207;-75
2023/04/04 10:19:37;;;;;;;11.10;3.53;;;;;;;6.19;54.81;92178.00;5084993;28;20444;-75
2023/04/04 10:22:06;;;;;;;11.40;3.25;;;;;;;6.05;53.72;92183.78;5096518;27;20597;-77
2023/04/04 10:24:32;;;;;;;9.15;3.53;;;;;;;6.08;55.19;92176.50;5108530;27;20032;-77
2023/04/04 10:26:58;;;;;;;8.48;3.15;;;;;;;6.74;52.69;92181.38;5110216;28;20721;-76
2023/04/04 10:29:24;;;;;;;7.82;2.60;;;;;;;7.33;51.36;92173.69;5121675;27;20050;-77
2023/04/04 10:32:01;;;;;;;4.63;2.40;;;;;;;7.21;52.46;92177.44;5128798;27;20031;-77
2023/04/04 10:34:39;;;;;;;6.57;2.58;;;;;;;6.75;51.83;92177.72;5129789;28;20027;-76
2023/04/04 10:37:14;;;;;;;7.00;2.75;;;;;;;6.74;51.64;92181.38;5131254;27;20125;-77
2023/04/04 10:39:52;;;;;;;4.13;2.30;;;;;;;7.04;50.87;92166.63;5130045;27;20023;-77
2023/04/04 10:42:18;;;;;;;10.27;3.35;;;;;;;7.55;50.30;92165.44;5130520;27;20042;-77
2023/04/04 10:44:46;;;;;;;8.75;2.92;;;;;;;7.10;50.41;92170.75;5131026;27;20038;-77
2023/04/04 10:47:24;;;;;;;3.58;2.35;;;;;;;6.60;51.30;92172.63;5135836;27;20031;-77
2023/04/04 10:49:51;;;;;;;5.95;2.85;;;;;;;6.17;52.55;92156.69;5134895;27;20042;-76
2023/04/04 10:52:22;;;;;;;5.82;2.65;;;;;;;6.17;52.37;92161.91;5134681;27;20039;-77
2023/04/04 10:54:57;;;;;;;7.30;3.03;;;;;;;6.52;53.10;92157.59;5116695;27;20593;-77
2023/04/04 10:57:24;;;;;;;8.48;3.78;;;;;;;7.17;52.38;92170.44;5113284;28;20382;-77
2023/04/04 11:00:09;;;;;;;5.07;3.13;;;;;;;8.02;50.52;92158.72;5122323;27;20465;-77
2023/04/04 11:02:58;;;;;;;9.45;3.22;;;;;;;8.10;48.38;92151.03;5133676;27;20119;-77
2023/04/04 11:05:31;;;;;;;10.55;2.85;;;;;;;8.06;49.12;92150.06;5135542;27;20106;-77
2023/04/04 11:08:00;;;;;;;5.57;2.45;;;;;;;8.13;47.52;92144.50;5114413;27;20035;-76
2023/04/04 11:10:29;;;;;;;11.18;3.40;;;;;;;8.13;48.80;92150.50;5134971;27;20512;-76
2023/04/04 11:12:57;;;;;;;5.32;2.83;;;;;;;8.14;47.95;92151.25;5131790;27;20118;-77
2023/04/04 11:15:25;;;;;;;7.50;3.17;;;;;;;8.19;47.61;92145.22;5135268;27;20030;-77
2023/04/04 11:17:58;;;;;;;6.93;2.95;;;;;;;8.74;46.49;92143.75;5116355;27;20042;-75
2023/04/04 11:20:29;;;;;;;7.25;2.88;;;;;;;8.77;46.32;92131.97;5133824;27;20042;-76
2023/04/04 11:23:16;;;;;;;5.20;2.50;;;;;;;8.99;45.15;92130.63;5133122;27;20416;-76
2023/04/04 11:25:50;;;;;;;9.88;3.70;;;;;;;8.61;46.20;92133.25;5119896;27;20075;-77
2023/04/04 11:28:34;;;;;;;5.65;3.05;;;;;;;8.39;47.66;92131.91;5133460;27;20412;-76
2023/04/04 11:31:19;;;;;;;5.72;2.67;;;;;;;8.68;45.69;92138.88;5133385;27;20031;-77
2023/04/04 11:34:03;;;;;;;8.20;3.35;;;;;;;8.60;46.12;92129.06;5115929;27;20035;-77
2023/04/04 11:36:34;;;;;;;6.85;3.58;;;;;;;8.40;46.00;92127.47;5112427;27;20124;-76
2023/04/04 11:39:18;;;;;;;6.72;3.20;;;;;;;8.69;46.30;92122.16;5114230;28;20031;-77
2023/04/04 11:42:10;;;;;;;6.10;3.13;;;;;;;8.45;46.21;92130.84;5132991;27;20668;-77
2023/04/04 11:44:41;;;;;;;6.82;3.60;;;;;;;8.25;45.83;92110.97;5133531;27;20031;-77
2023/04/04 11:47:10;;;;;;;6.75;3.15;;;;;;;8.71;46.52;92122.66;5112451;28;20039;-77